createdAt,value
2023-03-29T00:00:41.433Z,997.32
2023-03-29T00:01:41.462Z,997.31
2023-03-29T00:02:41.505Z,997.37
2023-03-29T00:03:41.475Z,997.29
2023-03-29T00:04:41.483Z,997.32
2023-03-29T00:05:41.404Z,997.33
2023-03-29T00:06:41.401Z,997.32
2023-03-29T00:07:41.359Z,997.32
2023-03-29T00:08:41.349Z,997.30
2023-03-29T00:09:41.335Z,997.28
2023-03-29T00:10:41.336Z,997.22
2023-03-29T00:11:41.356Z,997.25
2023-03-29T00:12:41.311Z,997.30
2023-03-29T00:13:41.304Z,997.20
2023-03-29T00:14:41.288Z,997.24
2023-03-29T00:15:41.286Z,997.22
2023-03-29T00:16:41.338Z,997.18
2023-03-29T00:17:41.307Z,997.25
2023-03-29T00:18:41.257Z,997.22
2023-03-29T00:19:41.240Z,997.12
2023-03-29T00:20:41.234Z,997.14
2023-03-29T00:21:41.267Z,997.10
2023-03-29T00:22:41.227Z,997.02
2023-03-29T00:23:41.191Z,996.96
2023-03-29T00:24:41.187Z,996.95
2023-03-29T00:25:41.164Z,996.96
2023-03-29T00:26:41.160Z,996.91
2023-03-29T00:27:41.167Z,996.85
2023-03-29T00:28:41.149Z,996.80
2023-03-29T00:29:41.146Z,996.76
2023-03-29T00:30:41.122Z,996.78
2023-03-29T00:31:41.147Z,996.74
2023-03-29T00:32:41.176Z,996.79
2023-03-29T00:33:41.087Z,996.72
2023-03-29T00:34:41.084Z,996.75
2023-03-29T00:35:41.075Z,996.77
2023-03-29T00:36:41.060Z,996.71
2023-03-29T00:37:41.089Z,996.68
2023-03-29T00:38:41.059Z,996.66
2023-03-29T00:39:41.031Z,996.64
2023-03-29T00:40:41.023Z,996.68
2023-03-29T00:41:41.007Z,996.67
2023-03-29T00:42:41.049Z,996.67
2023-03-29T00:43:40.994Z,996.66
2023-03-29T00:44:40.974Z,996.66
2023-03-29T00:45:40.971Z,996.66
2023-03-29T00:46:40.985Z,996.64
2023-03-29T00:47:41.068Z,996.67
2023-03-29T00:48:40.946Z,996.68
2023-03-29T00:49:40.932Z,996.64
2023-03-29T00:50:40.922Z,996.60
2023-03-29T00:51:40.923Z,996.63
2023-03-29T00:52:40.940Z,996.57
2023-03-29T00:53:40.890Z,996.54
2023-03-29T00:54:40.877Z,996.58
2023-03-29T00:55:40.860Z,996.55
2023-03-29T00:56:40.932Z,996.52
2023-03-29T00:57:40.858Z,996.56
2023-03-29T00:58:40.839Z,996.47
2023-03-29T00:59:40.821Z,996.42
2023-03-29T01:00:40.805Z,996.45
2023-03-29T01:01:40.848Z,996.41
2023-03-29T01:02:40.906Z,996.41
2023-03-29T01:03:40.873Z,996.41
2023-03-29T01:04:40.769Z,996.35
2023-03-29T01:05:40.762Z,996.31
2023-03-29T01:06:40.797Z,996.32
2023-03-29T01:07:40.758Z,996.32
2023-03-29T01:08:40.722Z,996.34
2023-03-29T01:09:40.718Z,996.34
2023-03-29T01:10:40.721Z,996.34
2023-03-29T01:11:40.751Z,996.32
2023-03-29T01:12:40.718Z,996.30
2023-03-29T01:13:40.682Z,996.31
2023-03-29T01:14:40.662Z,996.30
2023-03-29T01:15:40.654Z,996.29
2023-03-29T01:16:40.698Z,996.29
2023-03-29T01:17:40.704Z,996.22
2023-03-29T01:18:40.623Z,996.29
2023-03-29T01:19:40.626Z,996.27
2023-03-29T01:20:40.602Z,996.24
2023-03-29T01:21:40.592Z,996.23
2023-03-29T01:22:40.635Z,996.17
2023-03-29T01:23:40.574Z,996.17
2023-03-29T01:24:40.558Z,996.10
2023-03-29T01:25:40.550Z,996.20
2023-03-29T01:26:40.562Z,996.13
2023-03-29T01:27:40.544Z,996.16
2023-03-29T01:28:40.526Z,996.10
2023-03-29T01:29:40.521Z,996.09
2023-03-29T01:30:40.497Z,996.09
2023-03-29T01:31:40.546Z,996.04
2023-03-29T01:32:40.635Z,996.06
2023-03-29T01:33:40.464Z,996.04
2023-03-29T01:34:40.521Z,996.06
2023-03-29T01:35:40.452Z,995.99
2023-03-29T01:36:40.430Z,996.04
2023-03-29T01:37:40.517Z,996.02
2023-03-29T01:38:40.425Z,996.01
2023-03-29T01:39:40.397Z,996.03
2023-03-29T01:40:40.394Z,996.00
2023-03-29T01:41:40.379Z,996.01
2023-03-29T01:42:40.458Z,995.96
2023-03-29T01:43:40.362Z,995.90
2023-03-29T01:44:40.353Z,995.89
2023-03-29T01:45:40.338Z,995.84
2023-03-29T01:46:40.341Z,995.87
2023-03-29T01:47:40.412Z,995.89
2023-03-29T01:48:40.320Z,995.84
2023-03-29T01:49:40.294Z,995.84
2023-03-29T01:50:40.288Z,995.85
2023-03-29T01:51:40.273Z,995.81
2023-03-29T01:52:40.310Z,995.82
2023-03-29T01:53:40.256Z,995.81
2023-03-29T01:54:40.240Z,995.82
2023-03-29T01:55:40.228Z,995.82
2023-03-29T01:56:40.294Z,995.82
2023-03-29T01:57:40.221Z,995.88
2023-03-29T01:58:40.194Z,995.81
2023-03-29T01:59:40.174Z,995.84
2023-03-29T02:00:41.183Z,995.89
2023-03-29T02:01:40.247Z,995.81
2023-03-29T02:02:40.314Z,995.86
2023-03-29T02:03:40.172Z,995.86
2023-03-29T02:04:40.132Z,995.89
2023-03-29T02:05:40.135Z,995.83
2023-03-29T02:06:40.115Z,995.84
2023-03-29T02:07:40.131Z,995.78
2023-03-29T02:08:40.096Z,995.83
2023-03-29T02:09:40.086Z,995.82
2023-03-29T02:10:40.099Z,995.77
2023-03-29T02:11:40.063Z,995.77
2023-03-29T02:12:40.085Z,995.75
2023-03-29T02:13:40.035Z,995.78
2023-03-29T02:14:40.039Z,995.74
2023-03-29T02:15:40.068Z,995.75
2023-03-29T02:16:40.014Z,995.68
2023-03-29T02:17:40.140Z,995.66
2023-03-29T02:18:40.000Z,995.66
2023-03-29T02:19:39.980Z,995.66
2023-03-29T02:20:39.965Z,995.62
2023-03-29T02:21:39.967Z,995.60
2023-03-29T02:22:39.976Z,995.62
2023-03-29T02:23:39.937Z,995.58
2023-03-29T02:24:39.944Z,995.57
2023-03-29T02:25:39.953Z,995.50
2023-03-29T02:26:39.905Z,995.48
2023-03-29T02:27:39.927Z,995.49
2023-03-29T02:28:39.880Z,995.44
2023-03-29T02:29:39.872Z,995.41
2023-03-29T02:30:39.870Z,995.37
2023-03-29T02:31:39.911Z,995.35
2023-03-29T02:32:39.952Z,995.40
2023-03-29T02:33:39.835Z,995.38
2023-03-29T02:34:39.825Z,995.35
2023-03-29T02:35:39.855Z,995.36
2023-03-29T02:36:39.807Z,995.36
2023-03-29T02:37:39.811Z,995.41
2023-03-29T02:38:39.792Z,995.40
2023-03-29T02:39:39.789Z,995.40
2023-03-29T02:40:39.777Z,995.39
2023-03-29T02:41:39.758Z,995.37
2023-03-29T02:42:39.735Z,995.31
2023-03-29T02:43:39.739Z,995.31
2023-03-29T02:44:39.765Z,995.28
2023-03-29T02:45:39.750Z,995.24
2023-03-29T02:46:39.725Z,995.22
2023-03-29T02:47:39.730Z,995.20
2023-03-29T02:48:39.699Z,995.19
2023-03-29T02:49:39.681Z,995.13
2023-03-29T02:50:39.669Z,995.14
2023-03-29T02:51:39.649Z,995.11
2023-03-29T02:52:39.635Z,995.05
2023-03-29T02:53:39.649Z,995.08
2023-03-29T02:54:39.623Z,995.09
2023-03-29T02:55:39.614Z,995.11
2023-03-29T02:56:39.646Z,995.11
2023-03-29T02:57:39.603Z,995.04
2023-03-29T02:58:39.612Z,994.98
2023-03-29T02:59:39.568Z,994.97
2023-03-29T03:00:39.576Z,994.97
2023-03-29T03:01:39.574Z,994.99
2023-03-29T03:02:39.601Z,994.91
2023-03-29T03:03:39.718Z,994.95
2023-03-29T03:04:39.525Z,994.94
2023-03-29T03:05:39.530Z,994.94
2023-03-29T03:06:39.515Z,994.97
2023-03-29T03:07:39.495Z,994.94
2023-03-29T03:08:39.504Z,994.95
2023-03-29T03:09:39.472Z,994.99
2023-03-29T03:10:39.463Z,995.04
2023-03-29T03:11:39.460Z,995.00
2023-03-29T03:12:39.458Z,994.99
2023-03-29T03:13:39.465Z,995.03
2023-03-29T03:14:39.439Z,995.06
2023-03-29T03:15:39.429Z,995.02
2023-03-29T03:16:39.453Z,994.99
2023-03-29T03:17:39.396Z,994.93
2023-03-29T03:18:39.411Z,994.91
2023-03-29T03:19:39.391Z,994.88
2023-03-29T03:20:39.371Z,994.86
2023-03-29T03:21:39.377Z,994.81
2023-03-29T03:22:39.346Z,994.84
2023-03-29T03:23:39.354Z,994.85
2023-03-29T03:24:39.326Z,994.90
2023-03-29T03:25:39.316Z,994.91
2023-03-29T03:26:39.310Z,994.90
2023-03-29T03:27:39.291Z,994.86
2023-03-29T03:28:39.291Z,994.82
2023-03-29T03:29:39.273Z,994.86
2023-03-29T03:30:39.266Z,994.87
2023-03-29T03:31:39.298Z,994.85
2023-03-29T03:32:39.289Z,994.83
2023-03-29T03:33:39.245Z,994.82
2023-03-29T03:34:39.230Z,994.78
2023-03-29T03:35:39.290Z,994.78
2023-03-29T03:36:39.194Z,994.77
2023-03-29T03:37:39.213Z,994.78
2023-03-29T03:38:39.197Z,994.72
2023-03-29T03:39:39.177Z,994.69
2023-03-29T03:40:39.165Z,994.78
2023-03-29T03:41:39.151Z,994.70
2023-03-29T03:42:39.149Z,994.73
2023-03-29T03:43:39.152Z,994.72
2023-03-29T03:44:39.112Z,994.75
2023-03-29T03:45:39.125Z,994.81
2023-03-29T03:46:39.103Z,994.84
2023-03-29T03:47:39.167Z,994.89
2023-03-29T03:48:39.099Z,994.91
2023-03-29T03:49:39.066Z,994.92
2023-03-29T03:50:39.058Z,994.97
2023-03-29T03:51:39.050Z,994.96
2023-03-29T03:52:39.052Z,994.91
2023-03-29T03:53:39.056Z,994.95
2023-03-29T03:54:39.028Z,994.91
2023-03-29T03:55:40.010Z,994.89
2023-03-29T03:56:39.036Z,994.85
2023-03-29T03:57:38.993Z,994.85
2023-03-29T03:58:39.010Z,994.84
2023-03-29T03:59:38.984Z,994.92
2023-03-29T04:00:38.954Z,994.88
2023-03-29T04:01:39.946Z,994.85
2023-03-29T04:02:39.062Z,994.86
2023-03-29T04:03:39.009Z,994.87
2023-03-29T04:04:38.924Z,994.83
2023-03-29T04:05:38.925Z,994.82
2023-03-29T04:06:39.828Z,994.82
2023-03-29T04:07:38.912Z,994.83
2023-03-29T04:08:38.934Z,994.82
2023-03-29T04:09:38.881Z,994.73
2023-03-29T04:10:38.887Z,994.73
2023-03-29T04:11:38.856Z,994.74
2023-03-29T04:12:38.859Z,994.74
2023-03-29T04:13:38.840Z,994.70
2023-03-29T04:14:38.832Z,994.76
2023-03-29T04:15:38.886Z,994.76
2023-03-29T04:16:38.811Z,994.78
2023-03-29T04:17:39.050Z,994.81
2023-03-29T04:18:38.893Z,994.79
2023-03-29T04:19:38.775Z,994.82
2023-03-29T04:20:38.769Z,994.79
2023-03-29T04:21:38.762Z,994.81
2023-03-29T04:22:38.746Z,994.74
2023-03-29T04:23:38.768Z,994.73
2023-03-29T04:24:38.747Z,994.72
2023-03-29T04:25:38.726Z,994.73
2023-03-29T04:26:38.709Z,994.65
2023-03-29T04:27:38.728Z,994.54
2023-03-29T04:28:38.754Z,994.61
2023-03-29T04:29:38.679Z,994.55
2023-03-29T04:30:38.682Z,994.53
2023-03-29T04:31:38.726Z,994.50
2023-03-29T04:32:38.667Z,994.51
2023-03-29T04:33:38.672Z,994.51
2023-03-29T04:34:38.625Z,994.47
2023-03-29T04:35:38.667Z,994.50
2023-03-29T04:36:38.606Z,994.47
2023-03-29T04:38:10.531Z,994.51
2023-03-29T04:38:38.585Z,994.49
2023-03-29T04:39:38.583Z,994.50
2023-03-29T04:40:38.583Z,994.46
2023-03-29T04:41:38.575Z,994.47
2023-03-29T04:42:38.543Z,994.51
2023-03-29T04:43:40.340Z,994.48
2023-03-29T04:44:39.592Z,994.50
2023-03-29T04:45:38.526Z,994.50
2023-03-29T04:46:38.573Z,994.48
2023-03-29T04:47:38.515Z,994.48
2023-03-29T04:48:38.517Z,994.46
2023-03-29T04:49:38.506Z,994.45
2023-03-29T04:50:38.480Z,994.49
2023-03-29T04:51:38.473Z,994.40
2023-03-29T04:52:38.453Z,994.47
2023-03-29T04:53:38.466Z,994.46
2023-03-29T04:54:38.435Z,994.47
2023-03-29T04:55:38.433Z,994.47
2023-03-29T04:56:38.458Z,994.47
2023-03-29T04:57:38.409Z,994.45
2023-03-29T04:58:38.427Z,994.43
2023-03-29T04:59:38.397Z,994.47
2023-03-29T05:00:38.391Z,994.50
2023-03-29T05:01:38.413Z,994.51
2023-03-29T05:02:38.413Z,994.49
2023-03-29T05:03:38.377Z,994.45
2023-03-29T05:04:38.372Z,994.44
2023-03-29T05:05:38.331Z,994.43
2023-03-29T05:06:38.320Z,994.42
2023-03-29T05:07:38.309Z,994.44
2023-03-29T05:08:38.338Z,994.42
2023-03-29T05:09:38.307Z,994.42
2023-03-29T05:10:38.290Z,994.42
2023-03-29T05:11:38.316Z,994.39
2023-03-29T05:12:38.251Z,994.40
2023-03-29T05:13:38.272Z,994.46
2023-03-29T05:14:38.242Z,994.42
2023-03-29T05:15:40.192Z,994.42
2023-03-29T05:16:38.309Z,994.36
2023-03-29T05:17:38.238Z,994.41
2023-03-29T05:18:38.212Z,994.37
2023-03-29T05:19:38.189Z,994.45
2023-03-29T05:20:38.174Z,994.39
2023-03-29T05:21:38.188Z,994.36
2023-03-29T05:22:38.164Z,994.38
2023-03-29T05:23:38.176Z,994.31
2023-03-29T05:24:38.139Z,994.25
2023-03-29T05:25:38.136Z,994.24
2023-03-29T05:26:38.118Z,994.25
2023-03-29T05:27:38.109Z,994.22
2023-03-29T05:28:38.136Z,994.15
2023-03-29T05:29:38.100Z,994.21
2023-03-29T05:30:38.079Z,994.13
2023-03-29T05:31:38.145Z,994.21
2023-03-29T05:32:38.059Z,994.23
2023-03-29T05:33:38.065Z,994.12
2023-03-29T05:34:38.047Z,994.15
2023-03-29T05:35:38.042Z,994.16
2023-03-29T05:36:37.992Z,994.14
2023-03-29T05:37:39.048Z,994.16
2023-03-29T05:38:38.013Z,994.13
2023-03-29T05:39:38.010Z,994.13
2023-03-29T05:40:37.971Z,994.10
2023-03-29T05:41:37.990Z,994.13
2023-03-29T05:42:38.004Z,994.13
2023-03-29T05:43:37.955Z,994.12
2023-03-29T05:44:37.923Z,994.12
2023-03-29T05:45:37.960Z,994.06
2023-03-29T05:46:37.903Z,994.08
2023-03-29T05:47:37.988Z,994.08
2023-03-29T05:48:37.902Z,994.09
2023-03-29T05:49:37.878Z,994.05
2023-03-29T05:50:37.858Z,994.08
2023-03-29T05:51:37.851Z,994.09
2023-03-29T05:52:37.838Z,994.10
2023-03-29T05:53:37.856Z,994.06
2023-03-29T05:54:37.813Z,994.07
2023-03-29T05:55:37.813Z,994.10
2023-03-29T05:56:37.858Z,994.04
2023-03-29T05:57:37.794Z,994.04
2023-03-29T05:58:37.818Z,994.03
2023-03-29T05:59:37.761Z,993.99
2023-03-29T06:00:37.745Z,993.96
2023-03-29T06:01:37.743Z,994.04
2023-03-29T06:02:37.820Z,993.98
2023-03-29T06:03:37.910Z,993.94
2023-03-29T06:04:37.897Z,993.95
2023-03-29T06:05:37.697Z,993.98
2023-03-29T06:06:37.713Z,994.06
2023-03-29T06:07:37.679Z,993.99
2023-03-29T06:08:37.701Z,994.03
2023-03-29T06:09:37.681Z,994.00
2023-03-29T06:10:37.678Z,993.99
2023-03-29T06:11:37.627Z,993.93
2023-03-29T06:12:37.622Z,993.85
2023-03-29T06:13:37.621Z,993.87
2023-03-29T06:14:37.624Z,993.83
2023-03-29T06:15:37.606Z,993.83
2023-03-29T06:16:37.680Z,993.82
2023-03-29T06:17:37.607Z,993.81
2023-03-29T06:18:37.555Z,993.82
2023-03-29T06:19:37.561Z,993.84
2023-03-29T06:20:37.558Z,993.82
2023-03-29T06:21:37.520Z,993.81
2023-03-29T06:22:37.513Z,993.87
2023-03-29T06:23:37.539Z,993.82
2023-03-29T06:24:37.514Z,993.85
2023-03-29T06:25:37.484Z,993.95
2023-03-29T06:26:37.474Z,993.88
2023-03-29T06:27:37.464Z,993.90
2023-03-29T06:28:37.450Z,993.92
2023-03-29T06:29:37.473Z,993.91
2023-03-29T06:30:37.445Z,993.87
2023-03-29T06:31:37.481Z,993.96
2023-03-29T06:32:37.492Z,993.94
2023-03-29T06:33:37.390Z,993.96
2023-03-29T06:34:38.562Z,994.04
2023-03-29T06:35:37.417Z,994.04
2023-03-29T06:36:37.370Z,994.03
2023-03-29T06:37:37.361Z,994.01
2023-03-29T06:38:37.351Z,994.08
2023-03-29T06:39:37.353Z,993.98
2023-03-29T06:40:37.329Z,994.02
2023-03-29T06:41:37.310Z,994.03
2023-03-29T06:42:37.293Z,994.01
2023-03-29T06:43:37.288Z,994.03
2023-03-29T06:44:37.290Z,994.01
2023-03-29T06:45:37.305Z,994.09
2023-03-29T06:46:37.341Z,994.07
2023-03-29T06:47:37.340Z,994.07
2023-03-29T06:48:37.235Z,994.13
2023-03-29T06:49:37.479Z,994.10
2023-03-29T06:50:37.228Z,994.11
2023-03-29T06:51:37.203Z,994.10
2023-03-29T06:52:37.186Z,994.09
2023-03-29T06:53:37.179Z,994.09
2023-03-29T06:54:37.181Z,994.10
2023-03-29T06:55:37.163Z,994.09
2023-03-29T06:56:37.139Z,994.16
2023-03-29T06:57:37.137Z,994.20
2023-03-29T06:58:37.135Z,994.17
2023-03-29T06:59:37.142Z,994.16
2023-03-29T07:00:37.100Z,994.18
2023-03-29T07:01:37.114Z,994.15
2023-03-29T07:02:37.087Z,994.15
2023-03-29T07:03:37.070Z,994.12
2023-03-29T07:04:37.094Z,994.11
2023-03-29T07:05:37.043Z,994.07
2023-03-29T07:06:37.046Z,994.04
2023-03-29T07:07:37.020Z,994.10
2023-03-29T07:08:37.014Z,994.14
2023-03-29T07:09:37.015Z,994.17
2023-03-29T07:10:36.998Z,994.16
2023-03-29T07:11:37.020Z,994.14
2023-03-29T07:12:36.968Z,994.06
2023-03-29T07:13:36.952Z,994.12
2023-03-29T07:14:36.979Z,994.06
2023-03-29T07:15:37.056Z,994.06
2023-03-29T07:16:37.130Z,994.07
2023-03-29T07:17:36.984Z,993.98
2023-03-29T07:18:36.921Z,994.06
2023-03-29T07:19:36.891Z,994.05
2023-03-29T07:20:36.885Z,994.00
2023-03-29T07:21:38.035Z,994.01
2023-03-29T07:22:37.883Z,994.04
2023-03-29T07:23:36.858Z,994.02
2023-03-29T07:24:36.869Z,994.00
2023-03-29T07:25:36.840Z,994.00
2023-03-29T07:26:36.824Z,994.14
2023-03-29T07:27:36.822Z,994.00
2023-03-29T07:28:36.812Z,994.05
2023-03-29T07:29:36.809Z,994.07
2023-03-29T07:30:36.793Z,994.01
2023-03-29T07:31:36.776Z,994.09
2023-03-29T07:32:36.839Z,994.06
2023-03-29T07:33:36.917Z,994.03
2023-03-29T07:34:36.771Z,994.04
2023-03-29T07:35:36.746Z,993.95
2023-03-29T07:36:36.825Z,993.91
2023-03-29T07:37:36.710Z,993.88
2023-03-29T07:38:36.709Z,993.92
2023-03-29T07:39:36.711Z,993.87
2023-03-29T07:40:36.681Z,993.88
2023-03-29T07:41:36.669Z,993.90
2023-03-29T07:42:36.665Z,993.89
2023-03-29T07:43:36.653Z,993.89
2023-03-29T07:44:36.659Z,993.84
2023-03-29T07:45:36.729Z,993.91
2023-03-29T07:46:36.624Z,993.97
2023-03-29T07:47:36.643Z,993.99
2023-03-29T07:48:36.604Z,994.01
2023-03-29T07:49:36.609Z,994.04
2023-03-29T07:50:36.592Z,994.09
2023-03-29T07:51:36.629Z,994.04
2023-03-29T07:52:36.571Z,994.04
2023-03-29T07:53:36.559Z,994.07
2023-03-29T07:54:36.559Z,994.06
2023-03-29T07:55:36.531Z,993.97
2023-03-29T07:56:36.551Z,993.99
2023-03-29T07:57:36.510Z,993.94
2023-03-29T07:58:37.506Z,993.94
2023-03-29T07:59:36.503Z,993.96
2023-03-29T08:00:36.517Z,994.00
2023-03-29T08:01:37.450Z,994.01
2023-03-29T08:02:36.513Z,993.96
2023-03-29T08:03:36.509Z,993.99
2023-03-29T08:04:36.489Z,993.92
2023-03-29T08:05:41.185Z,993.94
2023-03-29T08:06:38.423Z,993.96
2023-03-29T08:07:36.416Z,994.00
2023-03-29T08:08:36.414Z,993.97
2023-03-29T08:09:36.410Z,994.04
2023-03-29T08:10:36.398Z,994.01
2023-03-29T08:11:36.378Z,993.96
2023-03-29T08:12:36.378Z,993.90
2023-03-29T08:13:36.352Z,993.91
2023-03-29T08:14:36.356Z,993.93
2023-03-29T08:15:36.337Z,993.94
2023-03-29T08:16:36.343Z,993.91
2023-03-29T08:17:37.336Z,993.88
2023-03-29T08:18:36.312Z,993.96
2023-03-29T08:19:36.316Z,994.03
2023-03-29T08:20:36.305Z,993.99
2023-03-29T08:21:36.280Z,993.93
2023-03-29T08:22:36.262Z,993.97
2023-03-29T08:23:37.259Z,994.01
2023-03-29T08:24:36.277Z,994.04
2023-03-29T08:25:36.273Z,994.03
2023-03-29T08:26:36.232Z,994.07
2023-03-29T08:27:36.243Z,994.07
2023-03-29T08:28:36.225Z,994.01
2023-03-29T08:29:36.204Z,994.11
2023-03-29T08:30:36.194Z,994.08
2023-03-29T08:31:36.287Z,994.08
2023-03-29T08:32:36.228Z,994.09
2023-03-29T08:33:36.172Z,994.04
2023-03-29T08:34:36.154Z,994.09
2023-03-29T08:35:36.215Z,994.04
2023-03-29T08:36:36.132Z,994.04
2023-03-29T08:37:36.141Z,994.10
2023-03-29T08:38:36.121Z,994.13
2023-03-29T08:39:36.119Z,994.13
2023-03-29T08:40:36.127Z,994.11
2023-03-29T08:41:36.096Z,994.11
2023-03-29T08:42:37.079Z,994.09
2023-03-29T08:43:36.069Z,994.09
2023-03-29T08:44:36.064Z,994.09
2023-03-29T08:45:36.068Z,994.13
2023-03-29T08:46:36.051Z,994.04
2023-03-29T08:47:36.040Z,994.06
2023-03-29T08:48:36.040Z,994.09
2023-03-29T08:49:36.016Z,993.99
2023-03-29T08:50:36.019Z,993.93
2023-03-29T08:51:36.002Z,993.94
2023-03-29T08:52:35.986Z,993.96
2023-03-29T08:53:35.984Z,993.97
2023-03-29T08:54:35.953Z,993.93
2023-03-29T08:55:35.978Z,994.01
2023-03-29T08:56:35.939Z,993.99
2023-03-29T08:57:35.921Z,993.98
2023-03-29T08:58:35.929Z,993.98
2023-03-29T08:59:35.909Z,993.97
2023-03-29T09:00:35.925Z,994.01
2023-03-29T09:01:35.937Z,993.99
2023-03-29T09:02:35.998Z,994.04
2023-03-29T09:03:35.960Z,994.00
2023-03-29T09:04:35.855Z,994.07
2023-03-29T09:05:35.874Z,994.05
2023-03-29T09:06:35.850Z,993.95
2023-03-29T09:07:35.839Z,993.94
2023-03-29T09:08:35.829Z,993.92
2023-03-29T09:09:35.815Z,993.95
2023-03-29T09:10:35.827Z,993.97
2023-03-29T09:11:35.792Z,993.94
2023-03-29T09:12:36.689Z,993.89
2023-03-29T09:13:36.773Z,993.92
2023-03-29T09:14:35.766Z,993.93
2023-03-29T09:15:35.800Z,993.98
2023-03-29T09:16:35.795Z,993.89
2023-03-29T09:17:35.783Z,993.77
2023-03-29T09:18:35.740Z,993.80
2023-03-29T09:19:35.714Z,993.80
2023-03-29T09:20:35.722Z,993.73
2023-03-29T09:21:35.692Z,993.62
2023-03-29T09:22:35.686Z,993.63
2023-03-29T09:23:35.675Z,993.64
2023-03-29T09:24:35.660Z,993.62
2023-03-29T09:25:44.043Z,993.69
2023-03-29T09:26:37.674Z,993.81
2023-03-29T09:27:35.632Z,993.89
2023-03-29T09:28:35.634Z,993.88
2023-03-29T09:29:35.626Z,993.89
2023-03-29T09:30:35.628Z,993.91
2023-03-29T09:31:35.652Z,993.83
2023-03-29T09:32:35.674Z,993.87
2023-03-29T09:33:35.575Z,993.80
2023-03-29T09:34:35.560Z,993.74
2023-03-29T09:35:35.668Z,993.78
2023-03-29T09:36:35.537Z,993.81
2023-03-29T09:37:35.528Z,993.78
2023-03-29T09:38:35.517Z,993.72
2023-03-29T09:39:35.505Z,993.77
2023-03-29T09:40:35.534Z,993.78
2023-03-29T09:41:35.489Z,993.78
2023-03-29T09:42:35.486Z,993.79
2023-03-29T09:43:35.468Z,993.81
2023-03-29T09:44:35.461Z,993.81
2023-03-29T09:45:35.494Z,993.74
2023-03-29T09:46:35.438Z,993.64
2023-03-29T09:47:35.444Z,993.64
2023-03-29T09:48:35.435Z,993.55
2023-03-29T09:49:35.412Z,993.46
2023-03-29T09:50:35.423Z,993.55
2023-03-29T09:51:35.410Z,993.52
2023-03-29T09:52:35.378Z,993.62
2023-03-29T09:53:35.377Z,993.53
2023-03-29T09:54:35.362Z,993.59
2023-03-29T09:55:35.380Z,993.46
2023-03-29T09:56:35.341Z,993.45
2023-03-29T09:57:35.336Z,993.51
2023-03-29T09:58:35.320Z,993.48
2023-03-29T09:59:35.308Z,993.38
2023-03-29T10:00:35.319Z,993.40
2023-03-29T10:01:35.392Z,993.42
2023-03-29T10:02:35.308Z,993.36
2023-03-29T10:03:35.279Z,993.39
2023-03-29T10:04:35.327Z,993.38
2023-03-29T10:05:35.293Z,993.43
2023-03-29T10:06:35.235Z,993.41
2023-03-29T10:07:36.240Z,993.45
2023-03-29T10:08:35.214Z,993.40
2023-03-29T10:09:35.237Z,993.33
2023-03-29T10:10:35.227Z,993.40
2023-03-29T10:11:35.182Z,993.42
2023-03-29T10:12:35.176Z,993.35
2023-03-29T10:13:35.175Z,993.36
2023-03-29T10:14:35.156Z,993.33
2023-03-29T10:15:35.175Z,993.37
2023-03-29T10:16:35.184Z,993.37
2023-03-29T10:17:35.177Z,993.36
2023-03-29T10:18:35.110Z,993.37
2023-03-29T10:19:36.107Z,993.39
2023-03-29T10:20:35.139Z,993.36
2023-03-29T10:21:35.092Z,993.47
2023-03-29T10:22:35.071Z,993.42
2023-03-29T10:23:35.071Z,993.39
2023-03-29T10:24:35.060Z,993.38
2023-03-29T10:25:35.067Z,993.46
2023-03-29T10:26:35.039Z,993.37
2023-03-29T10:27:35.040Z,993.45
2023-03-29T10:28:35.025Z,993.41
2023-03-29T10:29:35.041Z,993.49
2023-03-29T10:30:35.050Z,993.49
2023-03-29T10:31:35.038Z,993.51
2023-03-29T10:32:35.056Z,993.48
2023-03-29T10:33:34.968Z,993.42
2023-03-29T10:34:34.960Z,993.35
2023-03-29T10:35:35.003Z,993.41
2023-03-29T10:36:34.943Z,993.36
2023-03-29T10:38:46.935Z,993.34
2023-03-29T10:39:46.940Z,993.35
2023-03-29T10:40:46.985Z,993.39
2023-03-29T10:41:46.922Z,993.37
2023-03-29T10:42:46.919Z,993.44
2023-03-29T10:43:48.029Z,993.41
2023-03-29T10:44:48.014Z,993.47
2023-03-29T10:45:48.063Z,993.50
2023-03-29T10:46:47.998Z,993.47
2023-03-29T10:47:48.011Z,993.43
2023-03-29T10:48:47.978Z,993.49
2023-03-29T10:49:48.097Z,993.50
2023-03-29T10:50:48.009Z,993.42
2023-03-29T10:51:47.945Z,993.49
2023-03-29T10:52:47.939Z,993.46
2023-03-29T10:53:47.929Z,993.49
2023-03-29T10:54:47.912Z,993.48
2023-03-29T10:55:47.938Z,993.44
2023-03-29T10:56:47.917Z,993.44
2023-03-29T10:57:47.887Z,993.40
2023-03-29T10:58:47.880Z,993.39
2023-03-29T10:59:47.870Z,993.45
2023-03-29T11:00:47.883Z,993.41
2023-03-29T11:01:47.884Z,993.43
2023-03-29T11:02:47.968Z,993.47
2023-03-29T11:03:47.917Z,993.43
2023-03-29T11:04:47.828Z,993.40
2023-03-29T11:05:48.848Z,993.41
2023-03-29T11:06:47.814Z,993.40
2023-03-29T11:07:47.794Z,993.34
2023-03-29T11:08:47.788Z,993.39
2023-03-29T11:09:47.778Z,993.47
2023-03-29T11:10:47.768Z,993.35
2023-03-29T11:11:47.747Z,993.32
2023-03-29T11:12:47.738Z,993.24
2023-03-29T11:13:47.722Z,993.22
2023-03-29T11:14:47.724Z,993.29
2023-03-29T11:15:47.787Z,993.23
2023-03-29T11:16:47.717Z,993.16
2023-03-29T11:17:47.761Z,993.20
2023-03-29T11:18:47.685Z,993.16
2023-03-29T11:19:47.684Z,993.22
2023-03-29T11:20:47.689Z,993.27
2023-03-29T11:21:47.655Z,993.27
2023-03-29T11:22:47.634Z,993.29
2023-03-29T11:23:47.629Z,993.31
2023-03-29T11:24:47.637Z,993.29
2023-03-29T11:25:47.597Z,993.26
2023-03-29T11:26:47.616Z,993.34
2023-03-29T11:27:47.585Z,993.28
2023-03-29T11:28:47.576Z,993.31
2023-03-29T11:29:47.575Z,993.30
2023-03-29T11:30:47.736Z,993.24
2023-03-29T11:31:47.613Z,993.33
2023-03-29T11:32:47.600Z,993.29
2023-03-29T11:33:47.538Z,993.25
2023-03-29T11:34:47.522Z,993.27
2023-03-29T11:35:47.572Z,993.23
2023-03-29T11:36:47.544Z,993.13
2023-03-29T11:37:47.548Z,993.11
2023-03-29T11:38:47.476Z,993.18
2023-03-29T11:39:47.474Z,993.12
2023-03-29T11:40:47.523Z,993.10
2023-03-29T11:41:47.501Z,993.13
2023-03-29T11:42:47.493Z,993.05
2023-03-29T11:43:47.479Z,993.12
2023-03-29T11:44:47.463Z,993.03
2023-03-29T11:45:47.469Z,993.01
2023-03-29T11:46:47.570Z,993.00
2023-03-29T11:47:47.465Z,992.97
2023-03-29T11:48:47.492Z,992.88
2023-03-29T11:49:47.452Z,992.88
2023-03-29T11:50:47.371Z,992.91
2023-03-29T11:51:47.453Z,992.92
2023-03-29T11:52:47.337Z,992.89
2023-03-29T11:53:47.339Z,992.93
2023-03-29T11:54:47.319Z,992.90
2023-03-29T11:55:47.334Z,992.92
2023-03-29T11:56:47.396Z,992.91
2023-03-29T11:57:47.288Z,992.83
2023-03-29T11:58:47.285Z,992.92
2023-03-29T11:59:47.280Z,992.89
2023-03-29T12:00:47.264Z,992.86
2023-03-29T12:01:47.332Z,992.88
2023-03-29T12:02:47.609Z,992.88
2023-03-29T12:03:47.461Z,992.84
2023-03-29T12:04:47.245Z,992.90
2023-03-29T12:05:47.212Z,992.93
2023-03-29T12:06:47.273Z,992.91
2023-03-29T12:07:47.196Z,992.88
2023-03-29T12:08:47.186Z,992.87
2023-03-29T12:09:47.183Z,992.82
2023-03-29T12:10:47.162Z,992.82
2023-03-29T12:11:47.205Z,992.87
2023-03-29T12:12:47.152Z,992.79
2023-03-29T12:13:47.149Z,992.81
2023-03-29T12:14:47.131Z,992.74
2023-03-29T12:15:47.108Z,992.75
2023-03-29T12:16:47.146Z,992.71
2023-03-29T12:17:47.140Z,992.73
2023-03-29T12:18:47.092Z,992.64
2023-03-29T12:19:47.076Z,992.74
2023-03-29T12:20:47.065Z,992.80
2023-03-29T12:21:47.085Z,992.78
2023-03-29T12:22:47.044Z,992.78
2023-03-29T12:23:47.031Z,992.74
2023-03-29T12:24:47.036Z,992.75
2023-03-29T12:25:47.014Z,992.75
2023-03-29T12:26:47.069Z,992.72
2023-03-29T12:27:46.991Z,992.73
2023-03-29T12:28:46.982Z,992.72
2023-03-29T12:29:46.983Z,992.66